DAOR

Béchar Boudghene Ben Ali Lotfi Airport

Airport
ICAO code
DAOR
IATA Code
CBH
Summary
ICAO Region
AFI
ICAO Territory
Location

Béchar, Bechar

Serving
Béchar
Elevation
2661 ft
Coordinates
31° 38' 45" N , 2° 16' 11" W
Metar
DAOR 270900Z 02019KT 8000 NSC 10/M04 Q1014

Runways

Designator Length Width Surface Rops
18/36 2999 45 ASP No/No
6/24 3732 45 ASP No/No

Airport map

Aerial View

SKYbrary Partners:

Safety knowledge contributed by: